sensor_id;sensor_type;location;lat;lon;timestamp;temperature;humidity
9118;DHT22;4594;50.994;7.126;2022-11-20T00:00:54;6.10;52.80
9118;DHT22;4594;50.994;7.126;2022-11-20T00:03:20;6.10;52.70
9118;DHT22;4594;50.994;7.126;2022-11-20T00:05:46;6.10;52.70
9118;DHT22;4594;50.994;7.126;2022-11-20T00:08:12;6.10;52.70
9118;DHT22;4594;50.994;7.126;2022-11-20T00:10:39;6.10;52.70
9118;DHT22;4594;50.994;7.126;2022-11-20T00:13:06;6.10;52.40
9118;DHT22;4594;50.994;7.126;2022-11-20T00:15:32;6.10;52.50
9118;DHT22;4594;50.994;7.126;2022-11-20T00:17:58;6.10;52.50
9118;DHT22;4594;50.994;7.126;2022-11-20T00:20:25;6.10;52.60
9118;DHT22;4594;50.994;7.126;2022-11-20T00:22:50;6.10;52.60
9118;DHT22;4594;50.994;7.126;2022-11-20T00:25:16;6.10;52.60
9118;DHT22;4594;50.994;7.126;2022-11-20T00:27:42;6.10;52.60
9118;DHT22;4594;50.994;7.126;2022-11-20T00:30:08;6.10;52.60
9118;DHT22;4594;50.994;7.126;2022-11-20T00:32:34;6.10;52.50
9118;DHT22;4594;50.994;7.126;2022-11-20T00:35:00;6.00;52.50
9118;DHT22;4594;50.994;7.126;2022-11-20T00:37:26;6.00;52.40
9118;DHT22;4594;50.994;7.126;2022-11-20T00:39:51;6.00;52.50
9118;DHT22;4594;50.994;7.126;2022-11-20T00:42:17;6.00;52.40
9118;DHT22;4594;50.994;7.126;2022-11-20T00:44:43;6.00;52.40
9118;DHT22;4594;50.994;7.126;2022-11-20T00:47:09;6.00;52.50
9118;DHT22;4594;50.994;7.126;2022-11-20T00:49:34;6.00;52.50
9118;DHT22;4594;50.994;7.126;2022-11-20T00:52:00;6.00;52.70
9118;DHT22;4594;50.994;7.126;2022-11-20T00:54:25;6.00;52.60
9118;DHT22;4594;50.994;7.126;2022-11-20T00:56:53;6.00;52.60
9118;DHT22;4594;50.994;7.126;2022-11-20T00:59:19;6.00;52.50
9118;DHT22;4594;50.994;7.126;2022-11-20T01:01:44;6.00;53.00
9118;DHT22;4594;50.994;7.126;2022-11-20T01:04:10;6.00;52.70
9118;DHT22;4594;50.994;7.126;2022-11-20T01:06:37;6.10;52.70
9118;DHT22;4594;50.994;7.126;2022-11-20T01:09:12;6.00;52.50
9118;DHT22;4594;50.994;7.126;2022-11-20T01:11:43;6.00;52.00
9118;DHT22;4594;50.994;7.126;2022-11-20T01:14:15;6.00;52.30
9118;DHT22;4594;50.994;7.126;2022-11-20T01:16:45;6.00;52.30
9118;DHT22;4594;50.994;7.126;2022-11-20T01:19:16;6.00;52.30
9118;DHT22;4594;50.994;7.126;2022-11-20T01:21:47;6.10;52.30
9118;DHT22;4594;50.994;7.126;2022-11-20T01:24:17;6.00;52.40
9118;DHT22;4594;50.994;7.126;2022-11-20T01:26:47;6.00;52.30
9118;DHT22;4594;50.994;7.126;2022-11-20T01:29:20;6.00;52.20
9118;DHT22;4594;50.994;7.126;2022-11-20T01:31:48;6.00;51.80
9118;DHT22;4594;50.994;7.126;2022-11-20T01:34:16;6.00;52.50
9118;DHT22;4594;50.994;7.126;2022-11-20T01:36:44;6.00;52.30
9118;DHT22;4594;50.994;7.126;2022-11-20T01:41:39;6.10;52.40
9118;DHT22;4594;50.994;7.126;2022-11-20T01:44:51;6.00;52.70
9118;DHT22;4594;50.994;7.126;2022-11-20T01:50:14;6.10;52.00
9118;DHT22;4594;50.994;7.126;2022-11-20T01:52:56;6.10;51.50
9118;DHT22;4594;50.994;7.126;2022-11-20T01:55:31;6.10;51.90
9118;DHT22;4594;50.994;7.126;2022-11-20T01:58:09;6.10;52.20
9118;DHT22;4594;50.994;7.126;2022-11-20T02:00:36;6.10;52.80
9118;DHT22;4594;50.994;7.126;2022-11-20T02:03:08;6.10;52.80
9118;DHT22;4594;50.994;7.126;2022-11-20T02:08:28;6.10;52.80
9118;DHT22;4594;50.994;7.126;2022-11-20T02:10:54;6.10;52.80
9118;DHT22;4594;50.994;7.126;2022-11-20T02:13:20;6.10;52.90
9118;DHT22;4594;50.994;7.126;2022-11-20T02:16:12;6.10;52.90
9118;DHT22;4594;50.994;7.126;2022-11-20T02:18:42;6.10;52.30
9118;DHT22;4594;50.994;7.126;2022-11-20T02:27:00;6.10;52.60
9118;DHT22;4594;50.994;7.126;2022-11-20T02:29:39;6.20;51.50
9118;DHT22;4594;50.994;7.126;2022-11-20T02:32:29;6.10;52.50
9118;DHT22;4594;50.994;7.126;2022-11-20T02:34:58;6.20;51.20
9118;DHT22;4594;50.994;7.126;2022-11-20T02:37:38;6.10;52.90
9118;DHT22;4594;50.994;7.126;2022-11-20T02:40:06;6.10;52.50
9118;DHT22;4594;50.994;7.126;2022-11-20T02:42:32;6.10;52.80
9118;DHT22;4594;50.994;7.126;2022-11-20T02:44:58;6.10;52.80
9118;DHT22;4594;50.994;7.126;2022-11-20T02:47:23;6.20;52.90
9118;DHT22;4594;50.994;7.126;2022-11-20T02:49:49;6.10;53.00
9118;DHT22;4594;50.994;7.126;2022-11-20T02:52:15;6.10;52.90
9118;DHT22;4594;50.994;7.126;2022-11-20T02:54:40;6.10;52.90
9118;DHT22;4594;50.994;7.126;2022-11-20T02:57:06;6.10;52.80
9118;DHT22;4594;50.994;7.126;2022-11-20T02:59:32;6.10;52.80
9118;DHT22;4594;50.994;7.126;2022-11-20T03:01:58;6.10;52.70
9118;DHT22;4594;50.994;7.126;2022-11-20T03:04:23;6.10;52.70
9118;DHT22;4594;50.994;7.126;2022-11-20T03:06:49;6.10;52.70
9118;DHT22;4594;50.994;7.126;2022-11-20T03:09:15;6.10;52.70
9118;DHT22;4594;50.994;7.126;2022-11-20T03:11:40;6.10;52.80
9118;DHT22;4594;50.994;7.126;2022-11-20T03:14:06;6.10;52.70
9118;DHT22;4594;50.994;7.126;2022-11-20T03:16:32;6.10;52.70
9118;DHT22;4594;50.994;7.126;2022-11-20T03:18:58;6.10;52.60
9118;DHT22;4594;50.994;7.126;2022-11-20T03:21:24;6.10;52.70
9118;DHT22;4594;50.994;7.126;2022-11-20T03:23:50;6.10;52.70
9118;DHT22;4594;50.994;7.126;2022-11-20T03:26:22;6.00;52.50
9118;DHT22;4594;50.994;7.126;2022-11-20T03:28:51;6.00;51.90
9118;DHT22;4594;50.994;7.126;2022-11-20T03:31:21;6.00;52.50
9118;DHT22;4594;50.994;7.126;2022-11-20T03:33:49;6.00;52.60
9118;DHT22;4594;50.994;7.126;2022-11-20T03:36:17;6.00;52.90
9118;DHT22;4594;50.994;7.126;2022-11-20T03:38:44;6.00;52.80
9118;DHT22;4594;50.994;7.126;2022-11-20T03:41:12;6.00;53.00
9118;DHT22;4594;50.994;7.126;2022-11-20T03:43:40;6.00;52.80
9118;DHT22;4594;50.994;7.126;2022-11-20T03:46:07;6.00;53.00
9118;DHT22;4594;50.994;7.126;2022-11-20T03:48:33;6.00;52.90
9118;DHT22;4594;50.994;7.126;2022-11-20T03:51:13;6.10;53.00
9118;DHT22;4594;50.994;7.126;2022-11-20T03:53:43;6.10;51.50
9118;DHT22;4594;50.994;7.126;2022-11-20T03:56:10;6.00;52.70
9118;DHT22;4594;50.994;7.126;2022-11-20T03:58:38;6.10;52.80
9118;DHT22;4594;50.994;7.126;2022-11-20T04:01:12;6.00;52.80
9118;DHT22;4594;50.994;7.126;2022-11-20T04:03:41;6.10;52.50
9118;DHT22;4594;50.994;7.126;2022-11-20T04:06:13;6.10;52.90
9118;DHT22;4594;50.994;7.126;2022-11-20T04:08:49;6.10;52.90
9118;DHT22;4594;50.994;7.126;2022-11-20T04:11:21;6.10;53.00
9118;DHT22;4594;50.994;7.126;2022-11-20T04:13:57;6.10;52.50
9118;DHT22;4594;50.994;7.126;2022-11-20T04:16:25;6.10;52.60
9118;DHT22;4594;50.994;7.126;2022-11-20T04:18:53;6.10;53.10
9118;DHT22;4594;50.994;7.126;2022-11-20T04:21:20;6.10;53.10
9118;DHT22;4594;50.994;7.126;2022-11-20T04:23:46;6.10;53.30
9118;DHT22;4594;50.994;7.126;2022-11-20T04:26:12;6.10;53.30
9118;DHT22;4594;50.994;7.126;2022-11-20T04:28:38;6.10;53.30
9118;DHT22;4594;50.994;7.126;2022-11-20T04:31:16;6.10;53.20
9118;DHT22;4594;50.994;7.126;2022-11-20T04:33:44;6.10;52.20
9118;DHT22;4594;50.994;7.126;2022-11-20T04:38:42;6.10;52.70
9118;DHT22;4594;50.994;7.126;2022-11-20T04:41:14;6.10;53.20
9118;DHT22;4594;50.994;7.126;2022-11-20T04:43:41;6.20;52.60
9118;DHT22;4594;50.994;7.126;2022-11-20T04:46:11;6.20;53.40
9118;DHT22;4594;50.994;7.126;2022-11-20T04:48:36;6.10;52.90
9118;DHT22;4594;50.994;7.126;2022-11-20T04:51:05;6.10;53.00
9118;DHT22;4594;50.994;7.126;2022-11-20T04:53:31;6.10;52.50
9118;DHT22;4594;50.994;7.126;2022-11-20T04:56:01;6.10;52.90
9118;DHT22;4594;50.994;7.126;2022-11-20T04:58:28;6.10;52.50
9118;DHT22;4594;50.994;7.126;2022-11-20T05:01:03;6.10;53.10
9118;DHT22;4594;50.994;7.126;2022-11-20T05:03:31;6.10;52.50
9118;DHT22;4594;50.994;7.126;2022-11-20T05:06:04;6.10;53.30
9118;DHT22;4594;50.994;7.126;2022-11-20T05:08:31;6.10;52.60
9118;DHT22;4594;50.994;7.126;2022-11-20T05:11:08;6.10;53.40
9118;DHT22;4594;50.994;7.126;2022-11-20T05:13:36;6.20;52.80
9118;DHT22;4594;50.994;7.126;2022-11-20T05:16:13;6.20;53.70
9118;DHT22;4594;50.994;7.126;2022-11-20T05:18:41;6.20;53.10
9118;DHT22;4594;50.994;7.126;2022-11-20T05:21:08;6.20;53.60
9118;DHT22;4594;50.994;7.126;2022-11-20T05:23:35;6.20;53.50
9118;DHT22;4594;50.994;7.126;2022-11-20T05:26:01;6.20;53.60
9118;DHT22;4594;50.994;7.126;2022-11-20T05:28:29;6.20;53.70
9118;DHT22;4594;50.994;7.126;2022-11-20T05:30:55;6.30;53.80
9118;DHT22;4594;50.994;7.126;2022-11-20T05:33:21;6.30;53.90
9118;DHT22;4594;50.994;7.126;2022-11-20T05:35:47;6.30;53.90
9118;DHT22;4594;50.994;7.126;2022-11-20T05:38:14;6.30;53.90
9118;DHT22;4594;50.994;7.126;2022-11-20T05:40:40;6.30;53.90
9118;DHT22;4594;50.994;7.126;2022-11-20T05:43:05;6.40;54.00
9118;DHT22;4594;50.994;7.126;2022-11-20T05:45:31;6.40;54.00
9118;DHT22;4594;50.994;7.126;2022-11-20T05:48:00;6.40;53.90
9118;DHT22;4594;50.994;7.126;2022-11-20T05:50:27;6.40;53.50
9118;DHT22;4594;50.994;7.126;2022-11-20T05:52:53;6.40;53.70
9118;DHT22;4594;50.994;7.126;2022-11-20T05:55:19;6.40;53.80
9118;DHT22;4594;50.994;7.126;2022-11-20T05:57:45;6.40;53.80
9118;DHT22;4594;50.994;7.126;2022-11-20T06:00:11;6.40;53.70
9118;DHT22;4594;50.994;7.126;2022-11-20T06:02:37;6.40;53.70
9118;DHT22;4594;50.994;7.126;2022-11-20T06:05:03;6.40;53.60
9118;DHT22;4594;50.994;7.126;2022-11-20T06:07:28;6.40;53.50
9118;DHT22;4594;50.994;7.126;2022-11-20T06:09:54;6.40;53.50
9118;DHT22;4594;50.994;7.126;2022-11-20T06:12:20;6.40;53.60
9118;DHT22;4594;50.994;7.126;2022-11-20T06:14:46;6.40;53.80
9118;DHT22;4594;50.994;7.126;2022-11-20T06:17:11;6.40;54.00
9118;DHT22;4594;50.994;7.126;2022-11-20T06:19:37;6.50;54.20
9118;DHT22;4594;50.994;7.126;2022-11-20T06:22:03;6.50;54.20
9118;DHT22;4594;50.994;7.126;2022-11-20T06:24:28;6.50;54.30
9118;DHT22;4594;50.994;7.126;2022-11-20T06:26:54;6.50;54.30
9118;DHT22;4594;50.994;7.126;2022-11-20T06:29:19;6.60;54.70
9118;DHT22;4594;50.994;7.126;2022-11-20T06:31:45;6.60;54.40
9118;DHT22;4594;50.994;7.126;2022-11-20T06:34:11;6.60;54.40
9118;DHT22;4594;50.994;7.126;2022-11-20T06:36:36;6.60;54.40
9118;DHT22;4594;50.994;7.126;2022-11-20T06:39:02;6.60;54.30
9118;DHT22;4594;50.994;7.126;2022-11-20T06:41:28;6.70;54.30
9118;DHT22;4594;50.994;7.126;2022-11-20T06:43:54;6.70;54.20
9118;DHT22;4594;50.994;7.126;2022-11-20T06:46:20;6.70;54.00
9118;DHT22;4594;50.994;7.126;2022-11-20T06:48:47;6.70;53.80
9118;DHT22;4594;50.994;7.126;2022-11-20T06:51:14;6.70;53.60
9118;DHT22;4594;50.994;7.126;2022-11-20T06:53:40;6.70;53.60
9118;DHT22;4594;50.994;7.126;2022-11-20T06:56:06;6.60;53.40
9118;DHT22;4594;50.994;7.126;2022-11-20T06:58:33;6.60;53.30
9118;DHT22;4594;50.994;7.126;2022-11-20T07:01:01;6.60;53.10
9118;DHT22;4594;50.994;7.126;2022-11-20T07:03:29;6.60;52.90
9118;DHT22;4594;50.994;7.126;2022-11-20T07:05:56;6.50;52.80
9118;DHT22;4594;50.994;7.126;2022-11-20T07:08:23;6.40;52.60
9118;DHT22;4594;50.994;7.126;2022-11-20T07:10:49;6.40;52.60
9118;DHT22;4594;50.994;7.126;2022-11-20T07:13:14;6.30;52.40
9118;DHT22;4594;50.994;7.126;2022-11-20T07:15:40;6.30;52.40
9118;DHT22;4594;50.994;7.126;2022-11-20T07:18:06;6.30;52.50
9118;DHT22;4594;50.994;7.126;2022-11-20T07:20:32;6.20;52.50
9118;DHT22;4594;50.994;7.126;2022-11-20T07:22:58;6.20;52.60
9118;DHT22;4594;50.994;7.126;2022-11-20T07:25:25;6.10;52.60
9118;DHT22;4594;50.994;7.126;2022-11-20T07:27:52;6.10;52.70
9118;DHT22;4594;50.994;7.126;2022-11-20T07:30:18;6.10;52.90
9118;DHT22;4594;50.994;7.126;2022-11-20T07:32:50;6.10;53.10
9118;DHT22;4594;50.994;7.126;2022-11-20T07:35:16;6.10;52.90
9118;DHT22;4594;50.994;7.126;2022-11-20T07:37:42;6.10;53.40
9118;DHT22;4594;50.994;7.126;2022-11-20T07:40:08;6.10;53.50
9118;DHT22;4594;50.994;7.126;2022-11-20T07:42:34;6.10;53.60
9118;DHT22;4594;50.994;7.126;2022-11-20T07:44:59;6.10;53.80
9118;DHT22;4594;50.994;7.126;2022-11-20T07:47:25;6.20;54.00
9118;DHT22;4594;50.994;7.126;2022-11-20T07:49:51;6.20;54.20
9118;DHT22;4594;50.994;7.126;2022-11-20T07:52:16;6.20;54.20
9118;DHT22;4594;50.994;7.126;2022-11-20T07:54:42;6.20;54.20
9118;DHT22;4594;50.994;7.126;2022-11-20T07:57:08;6.30;54.30
9118;DHT22;4594;50.994;7.126;2022-11-20T07:59:33;6.30;54.40
9118;DHT22;4594;50.994;7.126;2022-11-20T08:01:59;6.30;54.40
9118;DHT22;4594;50.994;7.126;2022-11-20T08:04:24;6.40;54.50
9118;DHT22;4594;50.994;7.126;2022-11-20T08:06:52;6.40;54.60
9118;DHT22;4594;50.994;7.126;2022-11-20T08:09:18;6.40;54.50
9118;DHT22;4594;50.994;7.126;2022-11-20T08:11:44;6.50;54.80
9118;DHT22;4594;50.994;7.126;2022-11-20T08:14:28;6.50;54.90
9118;DHT22;4594;50.994;7.126;2022-11-20T08:16:53;6.60;55.10
9118;DHT22;4594;50.994;7.126;2022-11-20T08:19:20;6.70;55.30
9118;DHT22;4594;50.994;7.126;2022-11-20T08:21:46;6.70;55.20
9118;DHT22;4594;50.994;7.126;2022-11-20T08:24:11;6.80;55.30
9118;DHT22;4594;50.994;7.126;2022-11-20T08:26:38;6.90;55.40
9118;DHT22;4594;50.994;7.126;2022-11-20T08:29:05;6.90;55.30
9118;DHT22;4594;50.994;7.126;2022-11-20T08:31:31;6.90;55.20
9118;DHT22;4594;50.994;7.126;2022-11-20T08:33:57;7.00;55.30
9118;DHT22;4594;50.994;7.126;2022-11-20T08:36:24;7.10;55.50
9118;DHT22;4594;50.994;7.126;2022-11-20T08:38:54;7.10;55.50
9118;DHT22;4594;50.994;7.126;2022-11-20T08:41:21;7.20;55.20
9118;DHT22;4594;50.994;7.126;2022-11-20T08:43:57;7.20;55.70
9118;DHT22;4594;50.994;7.126;2022-11-20T08:46:32;7.30;55.80
9118;DHT22;4594;50.994;7.126;2022-11-20T08:49:02;7.30;55.60
9118;DHT22;4594;50.994;7.126;2022-11-20T08:51:31;7.40;55.60
9118;DHT22;4594;50.994;7.126;2022-11-20T08:53:58;7.50;55.60
9118;DHT22;4594;50.994;7.126;2022-11-20T08:56:24;7.50;55.40
9118;DHT22;4594;50.994;7.126;2022-11-20T08:58:50;7.50;55.40
9118;DHT22;4594;50.994;7.126;2022-11-20T09:01:18;7.60;55.50
9118;DHT22;4594;50.994;7.126;2022-11-20T09:03:45;7.60;55.70
9118;DHT22;4594;50.994;7.126;2022-11-20T09:06:11;7.70;55.90
9118;DHT22;4594;50.994;7.126;2022-11-20T09:08:37;7.70;56.00
9118;DHT22;4594;50.994;7.126;2022-11-20T09:11:03;7.80;56.10
9118;DHT22;4594;50.994;7.126;2022-11-20T09:13:30;7.90;56.10
9118;DHT22;4594;50.994;7.126;2022-11-20T09:16:04;7.90;55.80
9118;DHT22;4594;50.994;7.126;2022-11-20T09:18:31;8.00;55.60
9118;DHT22;4594;50.994;7.126;2022-11-20T09:21:02;8.00;55.60
9118;DHT22;4594;50.994;7.126;2022-11-20T09:23:34;8.10;54.60
9118;DHT22;4594;50.994;7.126;2022-11-20T09:26:05;8.10;54.20
9118;DHT22;4594;50.994;7.126;2022-11-20T09:28:32;8.10;54.30
9118;DHT22;4594;50.994;7.126;2022-11-20T09:30:59;8.10;54.80
9118;DHT22;4594;50.994;7.126;2022-11-20T09:33:25;8.10;54.80
9118;DHT22;4594;50.994;7.126;2022-11-20T09:35:51;8.20;55.10
9118;DHT22;4594;50.994;7.126;2022-11-20T09:38:17;8.20;55.10
9118;DHT22;4594;50.994;7.126;2022-11-20T09:40:58;8.20;55.20
9118;DHT22;4594;50.994;7.126;2022-11-20T09:43:50;8.30;53.30
9118;DHT22;4594;50.994;7.126;2022-11-20T09:46:38;8.30;53.10
9118;DHT22;4594;50.994;7.126;2022-11-20T09:55:13;8.40;53.00
9118;DHT22;4594;50.994;7.126;2022-11-20T09:57:46;8.40;54.90
9118;DHT22;4594;50.994;7.126;2022-11-20T10:00:15;8.50;55.00
9118;DHT22;4594;50.994;7.126;2022-11-20T10:05:39;8.60;53.90
9118;DHT22;4594;50.994;7.126;2022-11-20T10:11:19;8.80;55.00
9118;DHT22;4594;50.994;7.126;2022-11-20T10:14:15;8.90;54.20
9118;DHT22;4594;50.994;7.126;2022-11-20T10:17:16;8.90;54.70
9118;DHT22;4594;50.994;7.126;2022-11-20T10:20:05;9.00;53.70
9118;DHT22;4594;50.994;7.126;2022-11-20T10:31:01;9.10;53.20
9118;DHT22;4594;50.994;7.126;2022-11-20T10:33:33;9.10;53.80
9118;DHT22;4594;50.994;7.126;2022-11-20T10:36:17;9.10;54.10
9118;DHT22;4594;50.994;7.126;2022-11-20T10:38:53;9.10;53.10
9118;DHT22;4594;50.994;7.126;2022-11-20T10:41:26;9.10;54.00
9118;DHT22;4594;50.994;7.126;2022-11-20T10:46:34;9.10;52.90
9118;DHT22;4594;50.994;7.126;2022-11-20T10:49:11;9.10;53.40
9118;DHT22;4594;50.994;7.126;2022-11-20T10:54:36;9.00;52.50
9118;DHT22;4594;50.994;7.126;2022-11-20T11:00:37;9.00;52.20
9118;DHT22;4594;50.994;7.126;2022-11-20T11:03:06;9.00;54.30
9118;DHT22;4594;50.994;7.126;2022-11-20T11:08:34;9.00;53.70
9118;DHT22;4594;50.994;7.126;2022-11-20T11:11:24;9.00;53.80
9118;DHT22;4594;50.994;7.126;2022-11-20T11:13:53;9.00;53.40
9118;DHT22;4594;50.994;7.126;2022-11-20T11:16:26;9.00;54.60
9118;DHT22;4594;50.994;7.126;2022-11-20T11:19:04;9.00;53.40
9118;DHT22;4594;50.994;7.126;2022-11-20T11:21:30;9.00;52.80
9118;DHT22;4594;50.994;7.126;2022-11-20T11:24:02;9.00;54.40
9118;DHT22;4594;50.994;7.126;2022-11-20T11:26:29;9.00;53.40
9118;DHT22;4594;50.994;7.126;2022-11-20T11:28:58;9.00;54.20
9118;DHT22;4594;50.994;7.126;2022-11-20T11:31:27;9.00;54.00
9118;DHT22;4594;50.994;7.126;2022-11-20T11:34:07;9.00;54.10
9118;DHT22;4594;50.994;7.126;2022-11-20T11:36:36;9.00;52.70
9118;DHT22;4594;50.994;7.126;2022-11-20T11:39:05;9.00;54.20
9118;DHT22;4594;50.994;7.126;2022-11-20T11:41:36;8.90;53.70
9118;DHT22;4594;50.994;7.126;2022-11-20T11:44:21;8.90;53.90
9118;DHT22;4594;50.994;7.126;2022-11-20T11:47:21;8.90;52.10
9118;DHT22;4594;50.994;7.126;2022-11-20T11:50:14;8.90;53.10
9118;DHT22;4594;50.994;7.126;2022-11-20T11:52:54;8.90;52.70
9118;DHT22;4594;50.994;7.126;2022-11-20T11:55:35;8.90;53.20
9118;DHT22;4594;50.994;7.126;2022-11-20T11:58:34;8.90;53.70
9118;DHT22;4594;50.994;7.126;2022-11-20T12:01:30;8.90;52.10
9118;DHT22;4594;50.994;7.126;2022-11-20T12:04:16;8.90;52.30
9118;DHT22;4594;50.994;7.126;2022-11-20T12:06:57;8.90;53.70
9118;DHT22;4594;50.994;7.126;2022-11-20T12:09:35;8.90;53.90
9118;DHT22;4594;50.994;7.126;2022-11-20T12:12:17;8.90;53.60
9118;DHT22;4594;50.994;7.126;2022-11-20T12:14:48;8.90;53.50
9118;DHT22;4594;50.994;7.126;2022-11-20T12:17:17;8.90;54.60
9118;DHT22;4594;50.994;7.126;2022-11-20T12:19:44;8.90;54.50
9118;DHT22;4594;50.994;7.126;2022-11-20T12:25:22;8.90;52.40
9118;DHT22;4594;50.994;7.126;2022-11-20T12:28:28;8.90;54.50
9118;DHT22;4594;50.994;7.126;2022-11-20T12:31:13;9.00;52.60
9118;DHT22;4594;50.994;7.126;2022-11-20T12:39:41;8.90;53.30
9118;DHT22;4594;50.994;7.126;2022-11-20T12:45:08;8.90;53.60
9118;DHT22;4594;50.994;7.126;2022-11-20T12:51:02;8.90;52.10
9118;DHT22;4594;50.994;7.126;2022-11-20T12:56:46;8.90;52.50
9118;DHT22;4594;50.994;7.126;2022-11-20T13:02:27;8.80;54.30
9118;DHT22;4594;50.994;7.126;2022-11-20T13:05:36;8.80;53.10
9118;DHT22;4594;50.994;7.126;2022-11-20T13:08:03;8.80;52.00
9118;DHT22;4594;50.994;7.126;2022-11-20T13:10:49;8.80;54.30
9118;DHT22;4594;50.994;7.126;2022-11-20T13:16:17;8.80;53.30
9118;DHT22;4594;50.994;7.126;2022-11-20T13:18:50;8.80;53.60
9118;DHT22;4594;50.994;7.126;2022-11-20T13:21:19;8.80;54.60
9118;DHT22;4594;50.994;7.126;2022-11-20T13:23:46;8.80;54.40
9118;DHT22;4594;50.994;7.126;2022-11-20T13:26:22;8.90;54.80
9118;DHT22;4594;50.994;7.126;2022-11-20T13:29:24;8.90;53.60
9118;DHT22;4594;50.994;7.126;2022-11-20T13:31:50;8.90;52.60
9118;DHT22;4594;50.994;7.126;2022-11-20T13:34:27;8.90;55.00
9118;DHT22;4594;50.994;7.126;2022-11-20T13:36:55;9.00;53.70
9118;DHT22;4594;50.994;7.126;2022-11-20T13:39:33;9.00;54.80
9118;DHT22;4594;50.994;7.126;2022-11-20T13:44:44;9.10;55.10
9118;DHT22;4594;50.994;7.126;2022-11-20T13:47:26;9.10;54.20
9118;DHT22;4594;50.994;7.126;2022-11-20T13:49:55;9.10;53.20
9118;DHT22;4594;50.994;7.126;2022-11-20T14:01:48;9.10;53.70
9118;DHT22;4594;50.994;7.126;2022-11-20T14:04:19;9.10;54.60
9118;DHT22;4594;50.994;7.126;2022-11-20T14:06:51;9.10;54.00
9118;DHT22;4594;50.994;7.126;2022-11-20T14:09:29;9.10;54.70
9118;DHT22;4594;50.994;7.126;2022-11-20T14:11:59;9.20;53.50
9118;DHT22;4594;50.994;7.126;2022-11-20T14:14:26;9.10;54.80
9118;DHT22;4594;50.994;7.126;2022-11-20T14:17:15;9.10;54.60
9118;DHT22;4594;50.994;7.126;2022-11-20T14:19:48;9.10;53.30
9118;DHT22;4594;50.994;7.126;2022-11-20T14:22:20;9.10;54.60
9118;DHT22;4594;50.994;7.126;2022-11-20T14:25:27;9.10;54.80
9118;DHT22;4594;50.994;7.126;2022-11-20T14:28:00;9.10;53.20
9118;DHT22;4594;50.994;7.126;2022-11-20T14:30:48;9.10;53.80
9118;DHT22;4594;50.994;7.126;2022-11-20T14:33:15;9.10;52.90
9118;DHT22;4594;50.994;7.126;2022-11-20T14:35:46;9.10;54.70
9118;DHT22;4594;50.994;7.126;2022-11-20T14:38:15;9.10;54.20
9118;DHT22;4594;50.994;7.126;2022-11-20T14:40:44;9.10;54.50
9118;DHT22;4594;50.994;7.126;2022-11-20T14:46:02;9.10;53.90
9118;DHT22;4594;50.994;7.126;2022-11-20T14:48:33;9.00;53.80
9118;DHT22;4594;50.994;7.126;2022-11-20T14:51:03;9.00;54.30
9118;DHT22;4594;50.994;7.126;2022-11-20T14:53:29;9.00;54.70
9118;DHT22;4594;50.994;7.126;2022-11-20T14:55:58;9.00;54.80
9118;DHT22;4594;50.994;7.126;2022-11-20T14:58:31;9.00;54.40
9118;DHT22;4594;50.994;7.126;2022-11-20T15:01:06;9.00;54.70
9118;DHT22;4594;50.994;7.126;2022-11-20T15:03:37;9.00;54.50
9118;DHT22;4594;50.994;7.126;2022-11-20T15:06:06;9.00;55.10
9118;DHT22;4594;50.994;7.126;2022-11-20T15:08:36;9.00;55.20
9118;DHT22;4594;50.994;7.126;2022-11-20T15:11:02;9.00;55.20
9118;DHT22;4594;50.994;7.126;2022-11-20T15:13:33;9.00;55.30
9118;DHT22;4594;50.994;7.126;2022-11-20T15:16:03;9.00;54.60
9118;DHT22;4594;50.994;7.126;2022-11-20T15:18:38;9.00;55.20
9118;DHT22;4594;50.994;7.126;2022-11-20T15:21:17;9.00;55.20
9118;DHT22;4594;50.994;7.126;2022-11-20T15:23:44;9.00;54.90
9118;DHT22;4594;50.994;7.126;2022-11-20T15:26:12;9.10;55.50
9118;DHT22;4594;50.994;7.126;2022-11-20T15:28:44;9.10;55.20
9118;DHT22;4594;50.994;7.126;2022-11-20T15:31:17;9.10;55.30
9118;DHT22;4594;50.994;7.126;2022-11-20T15:33:45;9.10;55.30
9118;DHT22;4594;50.994;7.126;2022-11-20T15:36:11;9.10;55.40
9118;DHT22;4594;50.994;7.126;2022-11-20T15:38:37;9.10;55.40
9118;DHT22;4594;50.994;7.126;2022-11-20T15:41:04;9.10;55.40
9118;DHT22;4594;50.994;7.126;2022-11-20T15:43:30;9.10;55.50
9118;DHT22;4594;50.994;7.126;2022-11-20T15:45:59;9.10;55.70
9118;DHT22;4594;50.994;7.126;2022-11-20T15:48:35;9.00;55.30
9118;DHT22;4594;50.994;7.126;2022-11-20T15:53:37;9.00;55.40
9118;DHT22;4594;50.994;7.126;2022-11-20T15:56:04;9.00;56.00
9118;DHT22;4594;50.994;7.126;2022-11-20T15:58:30;9.00;56.10
9118;DHT22;4594;50.994;7.126;2022-11-20T16:00:56;9.00;56.30
9118;DHT22;4594;50.994;7.126;2022-11-20T16:04:01;8.90;56.40
9118;DHT22;4594;50.994;7.126;2022-11-20T16:06:27;8.80;55.50
9118;DHT22;4594;50.994;7.126;2022-11-20T16:08:53;8.90;56.50
9118;DHT22;4594;50.994;7.126;2022-11-20T16:11:18;8.90;56.60
9118;DHT22;4594;50.994;7.126;2022-11-20T16:13:44;8.80;56.60
9118;DHT22;4594;50.994;7.126;2022-11-20T16:16:34;8.80;56.80
9118;DHT22;4594;50.994;7.126;2022-11-20T16:19:02;8.80;56.60
9118;DHT22;4594;50.994;7.126;2022-11-20T16:21:28;8.80;57.00
9118;DHT22;4594;50.994;7.126;2022-11-20T16:23:58;8.80;57.10
9118;DHT22;4594;50.994;7.126;2022-11-20T16:26:25;8.70;57.20
9118;DHT22;4594;50.994;7.126;2022-11-20T16:28:51;8.70;57.30
9118;DHT22;4594;50.994;7.126;2022-11-20T16:31:18;8.70;57.40
9118;DHT22;4594;50.994;7.126;2022-11-20T16:33:51;8.70;57.50
9118;DHT22;4594;50.994;7.126;2022-11-20T16:36:19;8.70;57.40
9118;DHT22;4594;50.994;7.126;2022-11-20T16:38:46;8.70;57.70
9118;DHT22;4594;50.994;7.126;2022-11-20T16:41:12;8.70;57.80
9118;DHT22;4594;50.994;7.126;2022-11-20T16:43:45;8.70;57.90
9118;DHT22;4594;50.994;7.126;2022-11-20T16:46:15;8.70;57.80
9118;DHT22;4594;50.994;7.126;2022-11-20T16:48:42;8.70;58.10
9118;DHT22;4594;50.994;7.126;2022-11-20T16:51:11;8.80;58.30
9118;DHT22;4594;50.994;7.126;2022-11-20T16:53:37;8.70;58.20
9118;DHT22;4594;50.994;7.126;2022-11-20T16:56:18;8.60;58.30
9118;DHT22;4594;50.994;7.126;2022-11-20T16:58:46;8.70;58.00
9118;DHT22;4594;50.994;7.126;2022-11-20T17:01:15;8.70;58.50
9118;DHT22;4594;50.994;7.126;2022-11-20T17:03:43;8.70;58.60
9118;DHT22;4594;50.994;7.126;2022-11-20T17:06:18;8.70;58.80
9118;DHT22;4594;50.994;7.126;2022-11-20T17:08:46;8.70;58.50
9118;DHT22;4594;50.994;7.126;2022-11-20T17:17:21;8.60;58.70
9118;DHT22;4594;50.994;7.126;2022-11-20T17:19:47;8.60;58.80
9118;DHT22;4594;50.994;7.126;2022-11-20T17:22:12;8.60;59.00
9118;DHT22;4594;50.994;7.126;2022-11-20T17:24:38;8.60;59.10
9118;DHT22;4594;50.994;7.126;2022-11-20T17:27:04;8.60;59.10
9118;DHT22;4594;50.994;7.126;2022-11-20T17:29:29;8.60;59.10
9118;DHT22;4594;50.994;7.126;2022-11-20T17:31:55;8.60;59.20
9118;DHT22;4594;50.994;7.126;2022-11-20T17:34:21;8.60;59.30
9118;DHT22;4594;50.994;7.126;2022-11-20T17:36:46;8.60;59.30
9118;DHT22;4594;50.994;7.126;2022-11-20T17:39:13;8.60;59.30
9118;DHT22;4594;50.994;7.126;2022-11-20T17:41:40;8.60;59.20
9118;DHT22;4594;50.994;7.126;2022-11-20T17:44:09;8.60;59.30
9118;DHT22;4594;50.994;7.126;2022-11-20T17:46:36;8.60;59.30
9118;DHT22;4594;50.994;7.126;2022-11-20T17:49:02;8.60;59.40
9118;DHT22;4594;50.994;7.126;2022-11-20T17:51:31;8.60;59.50
9118;DHT22;4594;50.994;7.126;2022-11-20T17:54:01;8.60;59.50
9118;DHT22;4594;50.994;7.126;2022-11-20T17:56:35;8.60;59.60
9118;DHT22;4594;50.994;7.126;2022-11-20T17:59:19;8.60;59.50
9118;DHT22;4594;50.994;7.126;2022-11-20T18:01:45;8.60;59.70
9118;DHT22;4594;50.994;7.126;2022-11-20T18:04:11;8.60;59.80
9118;DHT22;4594;50.994;7.126;2022-11-20T18:06:37;8.60;59.90
9118;DHT22;4594;50.994;7.126;2022-11-20T18:09:04;8.60;59.90
9118;DHT22;4594;50.994;7.126;2022-11-20T18:11:33;8.60;59.90
9118;DHT22;4594;50.994;7.126;2022-11-20T18:14:03;8.60;60.00